createdAt,value
2022-07-29T00:00:17.431Z,1014.82
2022-07-29T00:01:19.296Z,1014.85
2022-07-29T00:02:17.471Z,1014.85
2022-07-29T00:03:17.519Z,1014.84
2022-07-29T00:04:18.046Z,1014.84
2022-07-29T00:05:17.464Z,1014.77
2022-07-29T00:06:17.463Z,1014.80
2022-07-29T00:07:17.478Z,1014.80
2022-07-29T00:08:17.481Z,1014.79
2022-07-29T00:09:17.475Z,1014.75
2022-07-29T00:10:17.476Z,1014.79
2022-07-29T00:11:17.504Z,1014.77
2022-07-29T00:12:17.510Z,1014.77
2022-07-29T00:13:17.479Z,1014.83
2022-07-29T00:14:17.714Z,1014.83
2022-07-29T00:15:17.488Z,1014.81
2022-07-29T00:16:17.539Z,1014.74
2022-07-29T00:17:19.050Z,1014.73
2022-07-29T00:18:17.507Z,1014.70
2022-07-29T00:19:17.508Z,1014.63
2022-07-29T00:20:17.519Z,1014.65
2022-07-29T00:21:17.505Z,1014.64
2022-07-29T00:22:17.541Z,1014.65
2022-07-29T00:23:17.534Z,1014.63
2022-07-29T00:24:18.005Z,1014.66
2022-07-29T00:25:17.539Z,1014.69
2022-07-29T00:26:17.547Z,1014.69
2022-07-29T00:27:17.528Z,1014.70
2022-07-29T00:28:17.572Z,1014.68
2022-07-29T00:29:33.686Z,1014.70
2022-07-29T00:30:25.734Z,1014.67
2022-07-29T00:31:17.619Z,1014.68
2022-07-29T00:32:17.560Z,1014.69
2022-07-29T00:33:17.571Z,1014.68
2022-07-29T00:34:17.917Z,1014.68
2022-07-29T00:35:17.583Z,1014.67
2022-07-29T00:36:17.594Z,1014.71
2022-07-29T00:37:17.588Z,1014.65
2022-07-29T00:38:17.575Z,1014.66
2022-07-29T00:39:17.587Z,1014.65
2022-07-29T00:40:17.575Z,1014.65
2022-07-29T00:41:17.591Z,1014.66
2022-07-29T00:42:17.582Z,1014.66
2022-07-29T00:43:17.595Z,1014.66
2022-07-29T00:44:17.835Z,1014.70
2022-07-29T00:45:17.589Z,1014.69
2022-07-29T00:46:17.619Z,1014.66
2022-07-29T00:47:17.611Z,1014.67
2022-07-29T00:48:17.623Z,1014.65
2022-07-29T00:49:17.656Z,1014.65
2022-07-29T00:50:17.627Z,1014.61
2022-07-29T00:51:17.622Z,1014.55
2022-07-29T00:52:17.651Z,1014.54
2022-07-29T00:53:17.634Z,1014.54
2022-07-29T00:54:17.885Z,1014.57
2022-07-29T00:55:17.622Z,1014.52
2022-07-29T00:56:17.638Z,1014.51
2022-07-29T00:57:17.630Z,1014.51
2022-07-29T00:58:17.666Z,1014.50
2022-07-29T00:59:17.668Z,1014.47
2022-07-29T01:00:17.653Z,1014.44
2022-07-29T01:01:17.707Z,1014.46
2022-07-29T01:02:17.748Z,1014.50
2022-07-29T01:03:17.667Z,1014.45
2022-07-29T01:05:51.248Z,1014.45
2022-07-29T01:06:49.716Z,1014.42
2022-07-29T01:07:49.719Z,1014.41
2022-07-29T01:08:49.725Z,1014.43
2022-07-29T01:09:49.731Z,1014.42
2022-07-29T01:10:49.743Z,1014.43
2022-07-29T01:11:49.753Z,1014.41
2022-07-29T01:12:49.746Z,1014.44
2022-07-29T01:13:49.744Z,1014.43
2022-07-29T01:14:49.764Z,1014.44
2022-07-29T01:15:49.923Z,1014.36
2022-07-29T01:16:49.841Z,1014.35
2022-07-29T01:17:53.353Z,1014.33
2022-07-29T01:18:49.789Z,1014.34
2022-07-29T01:19:49.770Z,1014.33
2022-07-29T01:20:49.783Z,1014.29
2022-07-29T01:21:49.806Z,1014.31
2022-07-29T01:22:49.789Z,1014.27
2022-07-29T01:23:49.787Z,1014.29
2022-07-29T01:24:49.801Z,1014.26
2022-07-29T01:25:53.252Z,1014.23
2022-07-29T01:26:49.805Z,1014.23
2022-07-29T01:27:49.813Z,1014.11
2022-07-29T01:28:49.796Z,1014.12
2022-07-29T01:29:49.808Z,1014.09
2022-07-29T01:30:49.806Z,1014.06
2022-07-29T01:31:59.098Z,1014.01
2022-07-29T01:32:49.822Z,1014.02
2022-07-29T01:33:49.824Z,1013.95
2022-07-29T01:34:49.831Z,1013.98
2022-07-29T01:35:49.823Z,1013.97
2022-07-29T01:36:49.821Z,1013.93
2022-07-29T01:37:49.837Z,1013.87
2022-07-29T01:38:49.830Z,1013.86
2022-07-29T01:39:49.855Z,1013.80
2022-07-29T01:40:49.941Z,1013.76
2022-07-29T01:41:49.847Z,1013.72
2022-07-29T01:42:49.848Z,1013.69
2022-07-29T01:43:49.848Z,1013.72
2022-07-29T01:44:49.861Z,1013.71
2022-07-29T01:45:49.907Z,1013.70
2022-07-29T01:46:49.945Z,1013.64
2022-07-29T01:47:49.871Z,1013.65
2022-07-29T01:48:49.917Z,1013.67
2022-07-29T01:49:49.882Z,1013.66
2022-07-29T01:50:49.877Z,1013.66
2022-07-29T01:51:49.879Z,1013.65
2022-07-29T01:52:49.887Z,1013.65
2022-07-29T01:53:49.896Z,1013.66
2022-07-29T01:54:49.892Z,1013.65
2022-07-29T01:55:49.901Z,1013.65
2022-07-29T01:56:49.914Z,1013.63
2022-07-29T01:57:49.911Z,1013.58
2022-07-29T01:58:49.906Z,1013.61
2022-07-29T01:59:49.915Z,1013.61
2022-07-29T02:00:49.910Z,1013.62
2022-07-29T02:01:50.043Z,1013.57
2022-07-29T02:02:49.924Z,1013.59
2022-07-29T02:03:49.918Z,1013.56
2022-07-29T02:04:50.012Z,1013.59
2022-07-29T02:05:49.942Z,1013.61
2022-07-29T02:06:49.920Z,1013.51
2022-07-29T02:07:49.937Z,1013.54
2022-07-29T02:08:49.942Z,1013.58
2022-07-29T02:09:49.937Z,1013.66
2022-07-29T02:10:49.941Z,1013.63
2022-07-29T02:11:49.997Z,1013.64
2022-07-29T02:12:50.783Z,1013.62
2022-07-29T02:13:49.969Z,1013.71
2022-07-29T02:14:49.973Z,1013.67
2022-07-29T02:15:49.990Z,1013.69
2022-07-29T02:16:49.968Z,1013.66
2022-07-29T02:17:50.002Z,1013.60
2022-07-29T02:18:49.978Z,1013.62
2022-07-29T02:19:49.967Z,1013.64
2022-07-29T02:20:49.977Z,1013.57
2022-07-29T02:21:49.986Z,1013.59
2022-07-29T02:22:50.008Z,1013.61
2022-07-29T02:23:51.468Z,1013.65
2022-07-29T02:24:50.012Z,1013.63
2022-07-29T02:25:50.017Z,1013.67
2022-07-29T02:26:50.049Z,1013.70
2022-07-29T02:27:50.001Z,1013.72
2022-07-29T02:28:50.008Z,1013.71
2022-07-29T02:29:50.031Z,1013.74
2022-07-29T02:30:50.056Z,1013.73
2022-07-29T02:31:50.000Z,1013.70
2022-07-29T02:32:50.000Z,1013.71
2022-07-29T02:33:50.042Z,1013.70
2022-07-29T02:34:50.009Z,1013.69
2022-07-29T02:35:50.052Z,1013.74
2022-07-29T02:36:50.021Z,1013.71
2022-07-29T02:37:50.018Z,1013.69
2022-07-29T02:38:50.025Z,1013.65
2022-07-29T02:39:50.048Z,1013.68
2022-07-29T02:40:50.047Z,1013.64
2022-07-29T02:41:50.051Z,1013.65
2022-07-29T02:42:50.032Z,1013.68
2022-07-29T02:43:50.046Z,1013.68
2022-07-29T02:44:50.059Z,1013.70
2022-07-29T02:45:51.835Z,1013.69
2022-07-29T02:46:50.129Z,1013.72
2022-07-29T02:47:50.054Z,1013.68
2022-07-29T02:48:50.170Z,1013.69
2022-07-29T02:49:50.064Z,1013.67
2022-07-29T02:50:50.068Z,1013.67
2022-07-29T02:51:50.072Z,1013.64
2022-07-29T02:52:50.107Z,1013.61
2022-07-29T02:53:50.075Z,1013.63
2022-07-29T02:54:50.078Z,1013.60
2022-07-29T02:55:50.076Z,1013.64
2022-07-29T02:56:50.083Z,1013.64
2022-07-29T02:57:54.944Z,1013.66
2022-07-29T02:58:50.105Z,1013.63
2022-07-29T02:59:50.107Z,1013.63
2022-07-29T03:00:50.115Z,1013.62
2022-07-29T03:01:50.203Z,1013.60
2022-07-29T03:02:50.117Z,1013.63
2022-07-29T03:03:50.096Z,1013.66
2022-07-29T03:04:50.267Z,1013.63
2022-07-29T03:05:50.110Z,1013.63
2022-07-29T03:06:50.153Z,1013.66
2022-07-29T03:07:50.120Z,1013.66
2022-07-29T03:08:50.135Z,1013.64
2022-07-29T03:09:50.134Z,1013.63
2022-07-29T03:10:50.147Z,1013.63
2022-07-29T03:11:51.066Z,1013.57
2022-07-29T03:12:50.139Z,1013.64
2022-07-29T03:13:50.154Z,1013.57
2022-07-29T03:14:50.133Z,1013.62
2022-07-29T03:15:50.209Z,1013.59
2022-07-29T03:16:50.165Z,1013.58
2022-07-29T03:17:50.150Z,1013.60
2022-07-29T03:18:50.169Z,1013.58
2022-07-29T03:19:50.167Z,1013.55
2022-07-29T03:20:50.152Z,1013.58
2022-07-29T03:21:50.161Z,1013.54
2022-07-29T03:22:50.172Z,1013.52
2022-07-29T03:23:50.193Z,1013.53
2022-07-29T03:24:50.174Z,1013.50
2022-07-29T03:25:50.174Z,1013.46
2022-07-29T03:26:50.167Z,1013.47
2022-07-29T03:27:50.193Z,1013.50
2022-07-29T03:28:50.171Z,1013.54
2022-07-29T03:29:50.662Z,1013.51
2022-07-29T03:30:50.251Z,1013.59
2022-07-29T03:31:50.200Z,1013.59
2022-07-29T03:32:51.854Z,1013.56
2022-07-29T03:33:50.257Z,1013.57
2022-07-29T03:34:50.199Z,1013.51
2022-07-29T03:35:50.207Z,1013.54
2022-07-29T03:36:50.200Z,1013.45
2022-07-29T03:37:50.216Z,1013.48
2022-07-29T03:38:50.211Z,1013.45
2022-07-29T03:39:50.229Z,1013.44
2022-07-29T03:40:50.218Z,1013.44
2022-07-29T03:41:50.247Z,1013.44
2022-07-29T03:42:50.214Z,1013.43
2022-07-29T03:43:50.246Z,1013.42
2022-07-29T03:44:50.232Z,1013.39
2022-07-29T03:45:50.229Z,1013.42
2022-07-29T03:46:50.288Z,1013.41
2022-07-29T03:47:52.274Z,1013.38
2022-07-29T03:48:50.291Z,1013.38
2022-07-29T03:49:50.243Z,1013.38
2022-07-29T03:50:50.269Z,1013.39
2022-07-29T03:51:50.251Z,1013.39
2022-07-29T03:52:50.242Z,1013.39
2022-07-29T03:53:50.260Z,1013.43
2022-07-29T03:54:50.247Z,1013.40
2022-07-29T03:55:50.277Z,1013.36
2022-07-29T03:56:50.264Z,1013.40
2022-07-29T03:57:50.265Z,1013.38
2022-07-29T03:58:50.272Z,1013.41
2022-07-29T03:59:50.284Z,1013.42
2022-07-29T04:00:50.328Z,1013.44
2022-07-29T04:01:50.339Z,1013.41
2022-07-29T04:02:50.373Z,1013.40
2022-07-29T04:03:50.359Z,1013.43
2022-07-29T04:04:50.312Z,1013.42
2022-07-29T04:05:50.283Z,1013.43
2022-07-29T04:06:50.298Z,1013.42
2022-07-29T04:07:50.305Z,1013.45
2022-07-29T04:08:50.308Z,1013.46
2022-07-29T04:09:50.326Z,1013.48
2022-07-29T04:10:50.328Z,1013.54
2022-07-29T04:12:02.221Z,1013.59
2022-07-29T04:12:50.312Z,1013.58
2022-07-29T04:13:50.341Z,1013.58
2022-07-29T04:14:50.308Z,1013.60
2022-07-29T04:15:50.378Z,1013.61
2022-07-29T04:16:50.326Z,1013.58
2022-07-29T04:17:50.330Z,1013.57
2022-07-29T04:18:50.333Z,1013.54
2022-07-29T04:19:50.350Z,1013.54
2022-07-29T04:20:50.326Z,1013.54
2022-07-29T04:21:50.354Z,1013.49
2022-07-29T04:22:50.338Z,1013.48
2022-07-29T04:23:53.099Z,1013.50
2022-07-29T04:24:50.348Z,1013.51
2022-07-29T04:25:50.361Z,1013.57
2022-07-29T04:26:50.339Z,1013.51
2022-07-29T04:27:50.376Z,1013.46
2022-07-29T04:28:50.368Z,1013.51
2022-07-29T04:29:56.890Z,1013.51
2022-07-29T04:30:50.438Z,1013.50
2022-07-29T04:31:50.368Z,1013.50
2022-07-29T04:32:50.373Z,1013.58
2022-07-29T04:33:50.370Z,1013.57
2022-07-29T04:34:50.368Z,1013.50
2022-07-29T04:35:52.357Z,1013.56
2022-07-29T04:36:50.402Z,1013.57
2022-07-29T04:37:50.384Z,1013.54
2022-07-29T04:38:50.378Z,1013.56
2022-07-29T04:39:50.387Z,1013.59
2022-07-29T04:40:50.394Z,1013.55
2022-07-29T04:41:50.387Z,1013.52
2022-07-29T04:42:50.399Z,1013.53
2022-07-29T04:43:50.417Z,1013.52
2022-07-29T04:44:50.411Z,1013.52
2022-07-29T04:45:50.571Z,1013.49
2022-07-29T04:46:50.532Z,1013.50
2022-07-29T04:47:50.414Z,1013.55
2022-07-29T04:48:50.446Z,1013.57
2022-07-29T04:49:50.421Z,1013.53
2022-07-29T04:50:50.427Z,1013.56
2022-07-29T04:51:50.434Z,1013.54
2022-07-29T04:52:50.439Z,1013.49
2022-07-29T04:53:50.475Z,1013.56
2022-07-29T04:54:50.419Z,1013.57
2022-07-29T04:55:50.424Z,1013.52
2022-07-29T04:56:50.452Z,1013.56
2022-07-29T04:57:50.435Z,1013.56
2022-07-29T04:58:50.453Z,1013.54
2022-07-29T04:59:50.462Z,1013.56
2022-07-29T05:00:50.472Z,1013.58
2022-07-29T05:01:50.485Z,1013.58
2022-07-29T05:02:50.540Z,1013.63
2022-07-29T05:03:50.466Z,1013.59
2022-07-29T05:04:50.461Z,1013.63
2022-07-29T05:05:50.463Z,1013.66
2022-07-29T05:06:50.458Z,1013.67
2022-07-29T05:07:50.469Z,1013.65
2022-07-29T05:08:50.506Z,1013.62
2022-07-29T05:09:50.476Z,1013.62
2022-07-29T05:10:50.478Z,1013.58
2022-07-29T05:11:50.469Z,1013.61
2022-07-29T05:12:50.503Z,1013.60
2022-07-29T05:13:50.487Z,1013.59
2022-07-29T05:14:50.486Z,1013.58
2022-07-29T05:15:50.534Z,1013.58
2022-07-29T05:16:50.564Z,1013.60
2022-07-29T05:17:50.486Z,1013.60
2022-07-29T05:18:50.499Z,1013.60
2022-07-29T05:19:50.520Z,1013.61
2022-07-29T05:20:50.502Z,1013.56
2022-07-29T05:21:50.509Z,1013.54
2022-07-29T05:22:50.533Z,1013.52
2022-07-29T05:23:50.539Z,1013.52
2022-07-29T05:24:50.520Z,1013.49
2022-07-29T05:25:50.543Z,1013.47
2022-07-29T05:26:50.528Z,1013.48
2022-07-29T05:27:50.909Z,1013.49
2022-07-29T05:28:50.526Z,1013.51
2022-07-29T05:29:50.532Z,1013.47
2022-07-29T05:30:50.583Z,1013.46
2022-07-29T05:31:50.533Z,1013.51
2022-07-29T05:32:50.533Z,1013.49
2022-07-29T05:33:50.537Z,1013.57
2022-07-29T05:34:51.908Z,1013.57
2022-07-29T05:35:50.557Z,1013.58
2022-07-29T05:36:50.552Z,1013.58
2022-07-29T05:37:50.570Z,1013.53
2022-07-29T05:38:50.556Z,1013.52
2022-07-29T05:39:56.735Z,1013.52
2022-07-29T05:40:59.008Z,1013.56
2022-07-29T05:41:59.043Z,1013.60
2022-07-29T05:42:59.041Z,1013.59
2022-07-29T05:43:59.150Z,1013.58
2022-07-29T05:44:59.124Z,1013.62
2022-07-29T05:46:04.658Z,1013.62
2022-07-29T05:46:58.649Z,1013.60
2022-07-29T05:47:58.659Z,1013.61
2022-07-29T05:48:59.230Z,1013.59
2022-07-29T05:49:58.696Z,1013.60
2022-07-29T05:50:58.743Z,1013.57
2022-07-29T05:51:58.141Z,1013.63
2022-07-29T05:52:58.763Z,1013.55
2022-07-29T05:53:58.800Z,1013.57
2022-07-29T05:54:58.815Z,1013.54
2022-07-29T05:55:58.830Z,1013.52
2022-07-29T05:56:58.866Z,1013.54
2022-07-29T05:57:58.133Z,1013.51
2022-07-29T05:58:50.600Z,1013.49
2022-07-29T05:59:50.610Z,1013.47
2022-07-29T06:00:50.623Z,1013.47
2022-07-29T06:01:50.661Z,1013.48
2022-07-29T06:02:50.642Z,1013.47
2022-07-29T06:03:50.642Z,1013.54
2022-07-29T06:04:50.681Z,1013.53
2022-07-29T06:05:50.625Z,1013.51
2022-07-29T06:06:50.633Z,1013.55
2022-07-29T06:07:50.985Z,1013.59
2022-07-29T06:08:50.623Z,1013.58
2022-07-29T06:09:50.629Z,1013.55
2022-07-29T06:10:50.628Z,1013.61
2022-07-29T06:11:50.653Z,1013.56
2022-07-29T06:12:50.637Z,1013.55
2022-07-29T06:13:50.628Z,1013.52
2022-07-29T06:14:54.118Z,1013.48
2022-07-29T06:15:50.677Z,1013.50
2022-07-29T06:16:50.742Z,1013.47
2022-07-29T06:17:59.031Z,1013.48
2022-07-29T06:18:50.645Z,1013.44
2022-07-29T06:19:50.652Z,1013.49
2022-07-29T06:20:50.681Z,1013.45
2022-07-29T06:21:50.680Z,1013.52
2022-07-29T06:22:50.672Z,1013.46
2022-07-29T06:23:50.679Z,1013.45
2022-07-29T06:24:50.668Z,1013.47
2022-07-29T06:25:50.712Z,1013.51
2022-07-29T06:26:50.686Z,1013.49
2022-07-29T06:27:50.671Z,1013.47
2022-07-29T06:28:50.716Z,1013.49
2022-07-29T06:29:50.686Z,1013.47
2022-07-29T06:30:58.449Z,1013.51
2022-07-29T06:31:50.697Z,1013.54
2022-07-29T06:32:50.698Z,1013.51
2022-07-29T06:33:50.701Z,1013.51
2022-07-29T06:34:50.711Z,1013.51
2022-07-29T06:35:55.145Z,1013.50
2022-07-29T06:36:50.720Z,1013.49
2022-07-29T06:37:50.715Z,1013.49
2022-07-29T06:38:52.010Z,1013.46
2022-07-29T06:39:50.722Z,1013.49
2022-07-29T06:40:50.731Z,1013.53
2022-07-29T06:41:50.730Z,1013.51
2022-07-29T06:42:50.719Z,1013.54
2022-07-29T06:43:54.406Z,1013.52
2022-07-29T06:44:50.753Z,1013.51
2022-07-29T06:45:50.774Z,1013.54
2022-07-29T06:46:50.757Z,1013.58
2022-07-29T06:47:50.752Z,1013.58
2022-07-29T06:48:50.958Z,1013.58
2022-07-29T06:49:50.754Z,1013.62
2022-07-29T06:50:50.770Z,1013.62
2022-07-29T06:51:50.774Z,1013.66
2022-07-29T06:52:50.760Z,1013.65
2022-07-29T06:53:59.322Z,1013.64
2022-07-29T06:54:50.767Z,1013.66
2022-07-29T06:55:50.786Z,1013.65
2022-07-29T06:56:50.777Z,1013.67
2022-07-29T06:57:50.792Z,1013.68
2022-07-29T06:58:50.793Z,1013.66
2022-07-29T06:59:50.796Z,1013.67
2022-07-29T07:00:50.851Z,1013.68
2022-07-29T07:01:50.860Z,1013.71
2022-07-29T07:02:50.906Z,1013.67
2022-07-29T07:03:50.820Z,1013.68
2022-07-29T07:04:50.817Z,1013.67
2022-07-29T07:05:50.818Z,1013.67
2022-07-29T07:06:50.822Z,1013.70
2022-07-29T07:07:50.827Z,1013.76
2022-07-29T07:08:50.851Z,1013.70
2022-07-29T07:09:50.856Z,1013.71
2022-07-29T07:10:50.827Z,1013.63
2022-07-29T07:11:50.841Z,1013.66
2022-07-29T07:12:50.832Z,1013.68
2022-07-29T07:13:50.842Z,1013.67
2022-07-29T07:14:50.874Z,1013.69
2022-07-29T07:15:50.850Z,1013.68
2022-07-29T07:16:50.890Z,1013.72
2022-07-29T07:17:50.865Z,1013.70
2022-07-29T07:18:50.862Z,1013.68
2022-07-29T07:19:50.876Z,1013.67
2022-07-29T07:20:50.870Z,1013.68
2022-07-29T07:21:50.979Z,1013.63
2022-07-29T07:22:50.893Z,1013.57
2022-07-29T07:23:50.894Z,1013.59
2022-07-29T07:24:50.913Z,1013.57
2022-07-29T07:25:50.891Z,1013.57
2022-07-29T07:26:50.908Z,1013.55
2022-07-29T07:27:50.905Z,1013.57
2022-07-29T07:28:50.904Z,1013.53
2022-07-29T07:29:50.944Z,1013.54
2022-07-29T07:30:50.914Z,1013.53
2022-07-29T07:31:51.000Z,1013.53
2022-07-29T07:32:50.935Z,1013.49
2022-07-29T07:33:50.958Z,1013.52
2022-07-29T07:34:50.954Z,1013.48
2022-07-29T07:35:50.933Z,1013.54
2022-07-29T07:36:50.948Z,1013.53
2022-07-29T07:37:50.955Z,1013.56
2022-07-29T07:38:50.961Z,1013.58
2022-07-29T07:39:50.989Z,1013.60
2022-07-29T07:40:50.957Z,1013.57
2022-07-29T07:41:50.994Z,1013.56
2022-07-29T07:42:50.972Z,1013.59
2022-07-29T07:43:51.022Z,1013.55
2022-07-29T07:45:12.239Z,1013.61
2022-07-29T07:45:51.085Z,1013.57
2022-07-29T07:46:51.004Z,1013.61
2022-07-29T07:47:51.040Z,1013.58
2022-07-29T07:48:51.042Z,1013.59
2022-07-29T07:49:51.035Z,1013.57
2022-07-29T07:50:51.027Z,1013.55
2022-07-29T07:51:51.242Z,1013.57
2022-07-29T07:52:51.018Z,1013.53
2022-07-29T07:53:51.019Z,1013.55
2022-07-29T07:54:51.044Z,1013.49
2022-07-29T07:56:09.853Z,1013.50
2022-07-29T07:56:52.954Z,1013.50
2022-07-29T07:57:51.115Z,1013.53
2022-07-29T07:58:51.059Z,1013.52
2022-07-29T07:59:51.087Z,1013.50
2022-07-29T08:00:51.123Z,1013.53
2022-07-29T08:01:56.156Z,1013.51
2022-07-29T08:02:51.546Z,1013.52
2022-07-29T08:03:51.088Z,1013.53
2022-07-29T08:04:51.104Z,1013.51
2022-07-29T08:05:51.090Z,1013.45
2022-07-29T08:06:51.124Z,1013.41
2022-07-29T08:07:51.149Z,1013.44
2022-07-29T08:08:51.961Z,1013.46
2022-07-29T08:09:51.118Z,1013.44
2022-07-29T08:10:51.124Z,1013.43
2022-07-29T08:11:52.044Z,1013.50
2022-07-29T08:12:51.123Z,1013.49
2022-07-29T08:13:51.142Z,1013.46
2022-07-29T08:14:51.133Z,1013.44
2022-07-29T08:15:51.164Z,1013.48
2022-07-29T08:16:51.213Z,1013.49
2022-07-29T08:17:51.171Z,1013.46
2022-07-29T08:18:51.170Z,1013.47
2022-07-29T08:19:51.180Z,1013.45
2022-07-29T08:20:51.170Z,1013.43
2022-07-29T08:21:51.422Z,1013.47
2022-07-29T08:22:51.211Z,1013.41
2022-07-29T08:23:58.595Z,1013.38
2022-07-29T08:24:51.196Z,1013.36
2022-07-29T08:25:51.200Z,1013.41
2022-07-29T08:26:51.221Z,1013.35
2022-07-29T08:27:51.236Z,1013.36
2022-07-29T08:28:51.231Z,1013.29
2022-07-29T08:29:51.222Z,1013.34
2022-07-29T08:30:51.240Z,1013.25
2022-07-29T08:31:51.580Z,1013.36
2022-07-29T08:32:54.321Z,1013.32
2022-07-29T08:33:51.274Z,1013.32
2022-07-29T08:34:51.272Z,1013.32
2022-07-29T08:35:51.267Z,1013.36
2022-07-29T08:36:51.271Z,1013.36
2022-07-29T08:37:51.279Z,1013.37
2022-07-29T08:38:51.311Z,1013.34
2022-07-29T08:39:51.304Z,1013.29
2022-07-29T08:40:51.306Z,1013.30
2022-07-29T08:41:57.440Z,1013.27
2022-07-29T08:42:51.314Z,1013.32
2022-07-29T08:43:51.317Z,1013.29
2022-07-29T08:44:51.309Z,1013.29
2022-07-29T08:45:51.343Z,1013.28
2022-07-29T08:46:51.330Z,1013.32
2022-07-29T08:47:51.369Z,1013.32
2022-07-29T08:48:51.392Z,1013.29
2022-07-29T08:49:51.364Z,1013.31
2022-07-29T08:50:51.353Z,1013.31
2022-07-29T08:51:51.376Z,1013.34
2022-07-29T08:52:51.373Z,1013.32
2022-07-29T08:53:51.366Z,1013.35
2022-07-29T08:54:51.386Z,1013.35
2022-07-29T08:55:51.390Z,1013.38
2022-07-29T08:56:51.385Z,1013.39
2022-07-29T08:57:54.379Z,1013.35
2022-07-29T08:58:52.322Z,1013.41
2022-07-29T08:59:51.410Z,1013.38
2022-07-29T09:00:51.481Z,1013.36
2022-07-29T09:01:51.496Z,1013.36
2022-07-29T09:02:51.454Z,1013.38
2022-07-29T09:03:51.514Z,1013.33
2022-07-29T09:04:51.450Z,1013.39
2022-07-29T09:05:51.474Z,1013.39
2022-07-29T09:06:51.451Z,1013.39
2022-07-29T09:07:51.452Z,1013.38
2022-07-29T09:08:51.535Z,1013.42
2022-07-29T09:09:51.471Z,1013.36
2022-07-29T09:10:51.508Z,1013.35
2022-07-29T09:11:51.929Z,1013.34
2022-07-29T09:12:51.506Z,1013.37
2022-07-29T09:13:51.492Z,1013.37
2022-07-29T09:14:51.515Z,1013.31
2022-07-29T09:15:51.530Z,1013.35
2022-07-29T09:17:00.866Z,1013.31
2022-07-29T09:17:51.524Z,1013.31
2022-07-29T09:18:51.534Z,1013.30
2022-07-29T09:19:51.523Z,1013.34
2022-07-29T09:20:51.556Z,1013.33
2022-07-29T09:21:51.576Z,1013.37
2022-07-29T09:22:51.561Z,1013.31
2022-07-29T09:23:51.576Z,1013.32
2022-07-29T09:24:51.580Z,1013.30
2022-07-29T09:25:51.601Z,1013.25
2022-07-29T09:26:51.826Z,1013.28
2022-07-29T09:27:51.586Z,1013.35
2022-07-29T09:28:51.600Z,1013.29
2022-07-29T09:29:51.599Z,1013.26
2022-07-29T09:30:51.595Z,1013.28
2022-07-29T09:31:51.694Z,1013.36
2022-07-29T09:32:51.637Z,1013.32
2022-07-29T09:35:23.238Z,1013.23
2022-07-29T09:36:23.266Z,1013.25
2022-07-29T09:37:23.223Z,1013.24
2022-07-29T09:38:23.328Z,1013.11
2022-07-29T09:39:23.243Z,1013.14
2022-07-29T09:40:23.268Z,1013.11
2022-07-29T09:41:23.243Z,1013.10
2022-07-29T09:42:23.254Z,1013.07
2022-07-29T09:43:23.293Z,1013.05
2022-07-29T09:44:23.274Z,1013.08
2022-07-29T09:45:23.282Z,1013.04
2022-07-29T09:46:23.317Z,1013.07
2022-07-29T09:47:23.288Z,1013.01
2022-07-29T09:48:23.300Z,1013.05
2022-07-29T09:49:23.369Z,1013.01
2022-07-29T09:50:23.317Z,1013.03
2022-07-29T09:51:37.898Z,1013.02
2022-07-29T09:52:23.322Z,1013.05
2022-07-29T09:53:23.321Z,1013.05
2022-07-29T09:54:23.342Z,1013.05
2022-07-29T09:55:23.358Z,1013.02
2022-07-29T09:56:23.364Z,1013.03
2022-07-29T09:57:26.169Z,1013.00
2022-07-29T09:58:23.394Z,1012.99
2022-07-29T09:59:23.367Z,1013.01
2022-07-29T10:00:23.397Z,1012.97
2022-07-29T10:01:23.415Z,1012.95
2022-07-29T10:02:23.926Z,1012.96
2022-07-29T10:03:23.464Z,1013.05
2022-07-29T10:04:23.412Z,1013.02
2022-07-29T10:05:23.414Z,1013.01
2022-07-29T10:06:23.422Z,1013.15
2022-07-29T10:07:23.431Z,1013.01
2022-07-29T10:08:23.440Z,1013.05
2022-07-29T10:09:23.455Z,1013.04
2022-07-29T10:10:23.464Z,1013.03
2022-07-29T10:11:23.448Z,1013.03
2022-07-29T10:12:23.469Z,1012.98
2022-07-29T10:13:23.479Z,1012.96
2022-07-29T10:14:23.539Z,1013.00
2022-07-29T10:15:23.485Z,1013.03
2022-07-29T10:16:23.530Z,1012.96
2022-07-29T10:17:23.506Z,1012.96
2022-07-29T10:18:23.509Z,1012.99
2022-07-29T10:19:23.519Z,1012.98
2022-07-29T10:20:23.539Z,1012.95
2022-07-29T10:21:35.915Z,1013.03
2022-07-29T10:22:50.819Z,1012.98
2022-07-29T10:23:23.542Z,1012.95
2022-07-29T10:24:23.553Z,1013.01
2022-07-29T10:25:23.563Z,1013.02
2022-07-29T10:26:23.577Z,1013.00
2022-07-29T10:27:23.586Z,1013.09
2022-07-29T10:28:23.591Z,1013.01
2022-07-29T10:29:23.595Z,1013.09
2022-07-29T10:30:23.603Z,1013.12
2022-07-29T10:31:23.650Z,1013.13
2022-07-29T10:32:23.611Z,1013.10
2022-07-29T10:33:23.620Z,1013.01
2022-07-29T10:34:23.623Z,1013.04
2022-07-29T10:35:23.628Z,1013.07
2022-07-29T10:36:23.634Z,1012.99
2022-07-29T10:37:23.660Z,1012.94
2022-07-29T10:38:24.790Z,1013.04
2022-07-29T10:39:23.659Z,1013.00
2022-07-29T10:40:23.721Z,1012.98
2022-07-29T10:41:23.715Z,1012.98
2022-07-29T10:42:34.151Z,1012.97
2022-07-29T10:43:23.693Z,1013.03
2022-07-29T10:44:23.996Z,1012.96
2022-07-29T10:45:23.725Z,1012.95
2022-07-29T10:46:23.785Z,1012.96
2022-07-29T10:47:23.718Z,1013.00
2022-07-29T10:48:23.734Z,1012.96
2022-07-29T10:49:25.178Z,1012.89
2022-07-29T10:50:23.746Z,1012.96
2022-07-29T10:51:23.757Z,1012.98
2022-07-29T10:52:26.552Z,1012.92
2022-07-29T10:53:23.769Z,1012.91
2022-07-29T10:54:23.776Z,1012.93
2022-07-29T10:55:23.811Z,1012.95
2022-07-29T10:56:25.376Z,1012.94
2022-07-29T10:57:25.823Z,1012.92
2022-07-29T10:58:23.811Z,1012.96
2022-07-29T10:59:23.810Z,1012.86
2022-07-29T11:00:23.843Z,1012.80
2022-07-29T11:01:37.315Z,1012.84
2022-07-29T11:02:41.917Z,1012.83
2022-07-29T11:03:23.878Z,1012.87
2022-07-29T11:04:23.875Z,1012.92
2022-07-29T11:05:23.857Z,1013.03
2022-07-29T11:06:26.291Z,1013.05
2022-07-29T11:07:23.888Z,1013.04
2022-07-29T11:08:26.107Z,1013.07
2022-07-29T11:09:34.796Z,1013.07
2022-07-29T11:10:27.061Z,1013.02
2022-07-29T11:11:23.917Z,1013.05
2022-07-29T11:12:23.930Z,1012.91
2022-07-29T11:13:23.953Z,1012.95
2022-07-29T11:14:26.639Z,1013.06
2022-07-29T11:15:24.962Z,1012.95
2022-07-29T11:16:24.950Z,1012.90
2022-07-29T11:17:23.973Z,1012.91
2022-07-29T11:18:24.444Z,1012.91
2022-07-29T11:20:24.016Z,1012.96
2022-07-29T11:21:24.037Z,1012.94
2022-07-29T11:22:24.049Z,1012.93
2022-07-29T11:23:24.050Z,1012.94
2022-07-29T11:24:28.702Z,1012.88
2022-07-29T11:25:50.073Z,1012.94
2022-07-29T11:26:24.101Z,1012.90
2022-07-29T11:27:28.640Z,1012.95
2022-07-29T11:28:25.139Z,1012.87
2022-07-29T11:29:24.141Z,1012.88
2022-07-29T11:30:25.210Z,1012.92
2022-07-29T11:31:24.161Z,1012.83
2022-07-29T11:32:24.290Z,1012.82
2022-07-29T11:33:54.138Z,1012.83
2022-07-29T11:34:27.959Z,1013.01
2022-07-29T11:35:38.510Z,1012.94
2022-07-29T11:36:28.144Z,1012.92
2022-07-29T11:37:27.631Z,1012.88
2022-07-29T11:38:24.272Z,1012.81
2022-07-29T11:39:24.283Z,1012.80
2022-07-29T11:40:24.295Z,1012.75
2022-07-29T11:41:24.301Z,1012.79
2022-07-29T11:42:28.188Z,1012.77
2022-07-29T11:43:24.353Z,1012.70
2022-07-29T11:44:24.347Z,1012.64
2022-07-29T11:45:42.049Z,1012.71
2022-07-29T11:46:25.119Z,1012.65
2022-07-29T11:47:24.438Z,1012.66
2022-07-29T11:48:31.645Z,1012.60
2022-07-29T11:49:32.450Z,1012.61
2022-07-29T11:50:26.927Z,1012.62
2022-07-29T11:51:32.891Z,1012.65
2022-07-29T11:52:24.437Z,1012.65
2022-07-29T11:53:24.473Z,1012.69
2022-07-29T11:54:27.475Z,1012.61
2022-07-29T11:55:24.479Z,1012.65
2022-07-29T11:56:25.567Z,1012.66
2022-07-29T11:57:36.310Z,1012.56
2022-07-29T11:58:25.202Z,1012.63
2022-07-29T11:59:33.134Z,1012.50
2022-07-29T12:00:24.544Z,1012.55
2022-07-29T12:01:24.574Z,1012.54
2022-07-29T12:02:37.555Z,1012.54
2022-07-29T12:03:33.475Z,1012.54
2022-07-29T12:04:24.582Z,1012.53
2022-07-29T12:05:36.221Z,1012.45
2022-07-29T12:06:24.625Z,1012.43
2022-07-29T12:07:24.611Z,1012.40
2022-07-29T12:08:24.626Z,1012.45
2022-07-29T12:09:24.642Z,1012.44